| time (UTC) | temp C | wind direction | speed KPH | gust KPH | rain 1hr cm | rain 24hr cm | rain mn cm | humidity % | barometer mb |
| 20260503050846 | 8 | 160 | 0.0 | 0.0 | 0.00 | 0.00 | 0.00 | 50 | 1007.5 |
| 20260503050342 | 8 | 140 | 0.0 | 1.6 | 0.00 | 0.00 | 0.00 | 49 | 1007.6 |
| 20260503045840 | 7 | 150 | 0.0 | 1.6 | 0.00 | 0.00 | 0.00 | 51 | 1007.6 |
| 20260503045338 | 7 | 161 | 0.0 | 0.0 | 0.00 | 0.00 | 0.00 | 52 | 1007.8 |
| 20260503044834 | 7 | 170 | 1.6 | 1.6 | 0.00 | 0.00 | 0.00 | 49 | 1007.9 |
| 20260503044331 | 8 | 222 | 1.6 | 3.2 | 0.00 | 0.00 | 0.00 | 51 | 1008.0 |
| 20260503043828 | 7 | 241 | 4.8 | 8.0 | 0.00 | 0.00 | 0.00 | 50 | 1008.0 |
| 20260503043325 | 7 | 187 | 1.6 | 1.6 | 0.00 | 0.00 | 0.00 | 57 | 1008.2 |
| 20260503042821 | 7 | 121 | 0.0 | 1.6 | 0.00 | 0.00 | 0.00 | 54 | 1008.2 |
| 20260503042318 | 6 | 144 | 1.6 | 1.6 | 0.00 | 0.00 | 0.00 | 54 | 1008.4 |
| 20260503041814 | 6 | 178 | 0.0 | 1.6 | 0.00 | 0.00 | 0.00 | 55 | 1008.7 |
| 20260503041311 | 5 | 199 | 1.6 | 3.2 | 0.00 | 0.00 | 0.00 | 58 | 1008.5 |
| 20260503040809 | 5 | 138 | 0.0 | 0.0 | 0.00 | 0.00 | 0.00 | 62 | 1008.8 |
| 20260503040306 | 6 | 130 | 0.0 | 0.0 | 0.00 | 0.00 | 0.00 | 63 | 1008.3 |
| 20260503035803 | 6 | 157 | 0.0 | 0.0 | 0.00 | 0.00 | 0.00 | 58 | 1008.3 |
| 20260503035300 | 6 | 172 | 0.0 | 0.0 | 0.00 | 0.00 | 0.00 | 59 | 1008.5 |
| 20260503034757 | 6 | 214 | 1.6 | 3.2 | 0.00 | 0.00 | 0.00 | 56 | 1008.7 |
| 20260503034254 | 6 | 157 | 1.6 | 1.6 | 0.00 | 0.00 | 0.00 | 56 | 1008.6 |
| 20260503033752 | 6 | 219 | 1.6 | 1.6 | 0.00 | 0.00 | 0.00 | 54 | 1008.7 |
| 20260503033249 | 6 | 221 | 0.0 | 1.6 | 0.00 | 0.00 | 0.00 | 55 | 1008.6 |
| 20260503032747 | 6 | 128 | 0.0 | 1.6 | 0.00 | 0.00 | 0.00 | 55 | 1008.5 |
| 20260503032246 | 6 | 238 | 1.6 | 1.6 | 0.00 | 0.00 | 0.00 | 54 | 1008.9 |
| 20260503031742 | 6 | 200 | 4.8 | 4.8 | 0.00 | 0.00 | 0.00 | 52 | 1009.0 |
| 20260503031241 | 6 | 233 | 3.2 | 3.2 | 0.00 | 0.00 | 0.00 | 53 | 1009.2 |
| 20260503030736 | 6 | 187 | 0.0 | 0.0 | 0.00 | 0.00 | 0.00 | 53 | 1009.1 |
| 20260503030233 | 6 | 226 | 0.0 | 1.6 | 0.00 | 0.00 | 0.00 | 52 | 1009.3 |
| 20260503025725 | 6 | 171 | 0.0 | 0.0 | 0.00 | 0.00 | 0.00 | 52 | 1009.3 |
| 20260503025223 | 6 | 281 | 3.2 | 3.2 | 0.00 | 0.00 | 0.00 | 50 | 1009.3 |
| 20260503024719 | 6 | 210 | 1.6 | 3.2 | 0.00 | 0.00 | 0.00 | 50 | 1009.5 |
| 20260503024216 | 6 | 163 | 0.0 | 0.0 | 0.00 | 0.00 | 0.00 | 49 | 1009.6 |
| 20260503023713 | 6 | 176 | 0.0 | 1.6 | 0.00 | 0.00 | 0.00 | 48 | 1009.8 |
| 20260503023209 | 6 | 236 | 3.2 | 3.2 | 0.00 | 0.00 | 0.00 | 48 | 1009.7 |
| 20260503022705 | 6 | 245 | 8.0 | 11.3 | 0.00 | 0.00 | 0.00 | 48 | 1009.6 |
| 20260503022205 | 6 | 200 | 0.0 | 0.0 | 0.00 | 0.00 | 0.00 | 51 | 1010.0 |
| 20260503021702 | 6 | 219 | 4.8 | 8.0 | 0.00 | 0.00 | 0.00 | 47 | 1010.1 |
| 20260503021158 | 6 | 257 | 4.8 | 4.8 | 0.00 | 0.00 | 0.00 | 47 | 1009.8 |
| 20260503020656 | 6 | 279 | 1.6 | 4.8 | 0.00 | 0.00 | 0.00 | 47 | 1010.2 |
| 20260503020153 | 6 | 218 | 0.0 | 1.6 | 0.00 | 0.00 | 0.00 | 50 | 1010.0 |
| 20260503015650 | 6 | 153 | 0.0 | 0.0 | 0.00 | 0.00 | 0.00 | 49 | 1010.2 |
| 20260503015147 | 6 | 131 | 1.6 | 3.2 | 0.00 | 0.00 | 0.00 | 47 | 1010.4 |
| 20260503014643 | 6 | 172 | 0.0 | 0.0 | 0.00 | 0.00 | 0.00 | 48 | 1010.3 |
| 20260503014141 | 6 | 262 | 4.8 | 4.8 | 0.00 | 0.00 | 0.00 | 47 | 1010.2 |
| 20260503013638 | 6 | 296 | 3.2 | 4.8 | 0.00 | 0.00 | 0.00 | 47 | 1009.8 |
| 20260503013136 | 6 | 173 | 0.0 | 1.6 | 0.00 | 0.00 | 0.00 | 48 | 1010.3 |
| 20260503012633 | 6 | 134 | 0.0 | 1.6 | 0.00 | 0.00 | 0.00 | 47 | 1010.2 |
| 20260503012129 | 7 | 50 | 6.4 | 8.0 | 0.00 | 0.00 | 0.00 | 46 | 1010.4 |
| 20260503011626 | 7 | 221 | 1.6 | 3.2 | 0.00 | 0.00 | 0.00 | 47 | 1010.5 |
| 20260503011123 | 7 | 352 | 1.6 | 3.2 | 0.00 | 0.00 | 0.00 | 48 | 1010.4 |
| 20260503010619 | 7 | 195 | 0.0 | 1.6 | 0.00 | 0.00 | 0.00 | 49 | 1010.7 |
| 20260503010117 | 7 | 179 | 0.0 | 1.6 | 0.00 | 0.00 | 0.00 | 48 | 1010.7 |
| 20260503005614 | 7 | 216 | 0.0 | 0.0 | 0.00 | 0.00 | 0.00 | 47 | 1010.9 |
| 20260503005111 | 7 | 119 | 1.6 | 1.6 | 0.00 | 0.00 | 0.00 | 46 | 1010.8 |
| 20260503004607 | 8 | 235 | 4.8 | 8.0 | 0.00 | 0.00 | 0.00 | 46 | 1010.5 |
| 20260503004106 | 8 | 229 | 0.0 | 1.6 | 0.00 | 0.00 | 0.00 | 47 | 1011.0 |
| 20260503003602 | 8 | 186 | 1.6 | 1.6 | 0.00 | 0.00 | 0.00 | 46 | 1010.9 |
| 20260503003059 | 8 | 149 | 0.0 | 0.0 | 0.00 | 0.00 | 0.00 | 48 | 1010.9 |
| 20260503002556 | 8 | 173 | 0.0 | 0.0 | 0.00 | 0.00 | 0.00 | 48 | 1010.8 |
| 20260503002053 | 8 | 184 | 0.0 | 0.0 | 0.00 | 0.00 | 0.00 | 47 | 1011.1 |
| 20260503001549 | 9 | 179 | 0.0 | 0.0 | 0.00 | 0.00 | 0.00 | 45 | 1010.9 |
| 20260503001046 | 9 | 140 | 0.0 | 0.0 | 0.00 | 0.00 | 0.00 | 48 | 1011.0 |
| 20260503000544 | 9 | 143 | 0.0 | 0.0 | 0.00 | 0.00 | 0.00 | 45 | 1011.1 |
| 20260503000041 | 10 | 142 | 0.0 | 0.0 | 0.00 | 0.00 | 0.00 | 46 | 1011.2 |
| 20260502235537 | 10 | 143 | 0.0 | 0.0 | 0.00 | 0.00 | 0.00 | 40 | 1011.2 |
| 20260502235035 | 10 | 143 | 0.0 | 0.0 | 0.00 | 0.00 | 0.00 | 38 | 1011.3 |
| 20260502234531 | 10 | 143 | 0.0 | 0.0 | 0.00 | 0.00 | 0.00 | 38 | 1011.2 |
| 20260502234029 | 10 | 156 | 0.0 | 0.0 | 0.00 | 0.00 | 0.00 | 34 | 1011.4 |
| 20260502233529 | 10 | 174 | 0.0 | 0.0 | 0.00 | 0.00 | 0.00 | 32 | 1011.4 |
| 20260502233026 | 10 | 158 | 0.0 | 0.0 | 0.00 | 0.00 | 0.00 | 31 | 1011.7 |
| 20260502232522 | 10 | 159 | 0.0 | 0.0 | 0.00 | 0.00 | 0.00 | 34 | 1011.6 |
| 20260502232020 | 10 | 143 | 0.0 | 0.0 | 0.00 | 0.00 | 0.00 | 31 | 1011.7 |
| 20260502231517 | 10 | 111 | 0.0 | 0.0 | 0.00 | 0.00 | 0.00 | 32 | 1011.7 |
| 20260502231015 | 10 | 155 | 0.0 | 0.0 | 0.00 | 0.00 | 0.00 | 31 | 1011.8 |
| 20260502230513 | 10 | 165 | 0.0 | 0.0 | 0.00 | 0.00 | 0.00 | 31 | 1011.9 |
| 20260502230011 | 11 | 177 | 1.6 | 1.6 | 0.00 | 0.00 | 0.00 | 31 | 1011.9 |
| 20260502225511 | 11 | 156 | 1.6 | 1.6 | 0.00 | 0.00 | 0.00 | 30 | 1011.9 |
| 20260502225009 | 11 | 192 | 1.6 | 1.6 | 0.00 | 0.00 | 0.00 | 29 | 1011.8 |
| 20260502224505 | 11 | 230 | 0.0 | 1.6 | 0.00 | 0.00 | 0.00 | 28 | 1011.9 |
| 20260502224002 | 12 | 207 | 1.6 | 1.6 | 0.00 | 0.00 | 0.00 | 29 | 1011.9 |
| 20260502223500 | 12 | 148 | 0.0 | 0.0 | 0.00 | 0.00 | 0.00 | 29 | 1011.9 |
| 20260502222958 | 12 | 199 | 0.0 | 0.0 | 0.00 | 0.00 | 0.00 | 30 | 1012.1 |
| 20260502222455 | 12 | 83 | 0.0 | 1.6 | 0.00 | 0.00 | 0.00 | 30 | 1012.3 |
| 20260502221950 | 12 | 249 | 3.2 | 3.2 | 0.00 | 0.00 | 0.00 | 28 | 1012.4 |
| 20260502221447 | 11 | 127 | 0.0 | 1.6 | 0.00 | 0.00 | 0.00 | 31 | 1012.4 |
| 20260502220944 | 11 | 179 | 1.6 | 1.6 | 0.00 | 0.00 | 0.00 | 32 | 1012.4 |
| 20260502220439 | 11 | 112 | 1.6 | 1.6 | 0.00 | 0.00 | 0.00 | 31 | 1012.1 |
| 20260502215937 | 11 | 105 | 0.0 | 1.6 | 0.00 | 0.00 | 0.00 | 34 | 1012.4 |
| 20260502215434 | 11 | 188 | 1.6 | 3.2 | 0.00 | 0.00 | 0.00 | 33 | 1012.5 |
| 20260502214931 | 11 | 211 | 3.2 | 3.2 | 0.00 | 0.00 | 0.00 | 32 | 1012.5 |
| 20260502214428 | 11 | 179 | 0.0 | 1.6 | 0.00 | 0.00 | 0.00 | 38 | 1012.4 |
| 20260502213925 | 11 | 197 | 1.6 | 1.6 | 0.00 | 0.00 | 0.00 | 34 | 1012.6 |
| 20260502213421 | 10 | 225 | 3.2 | 3.2 | 0.00 | 0.00 | 0.00 | 37 | 1012.7 |
| 20260502212921 | 10 | 217 | 3.2 | 3.2 | 0.00 | 0.00 | 0.00 | 36 | 1012.5 |
| 20260502212419 | 10 | 155 | 0.0 | 0.0 | 0.00 | 0.00 | 0.00 | 39 | 1012.8 |
| 20260502211915 | 10 | 266 | 1.6 | 1.6 | 0.00 | 0.00 | 0.00 | 37 | 1012.9 |
| 20260502211411 | 10 | 208 | 1.6 | 1.6 | 0.00 | 0.00 | 0.00 | 38 | 1013.0 |
| 20260502210909 | 10 | 212 | 0.0 | 0.0 | 0.00 | 0.00 | 0.00 | 42 | 1012.9 |
| 20260502210406 | 10 | 117 | 0.0 | 0.0 | 0.00 | 0.00 | 0.00 | 45 | 1012.9 |
| 20260502205903 | 9 | 146 | 0.0 | 1.6 | 0.00 | 0.00 | 0.00 | 44 | 1013.1 |
| 20260502205359 | 9 | 177 | 1.6 | 1.6 | 0.00 | 0.00 | 0.00 | 42 | 1013.4 |
| 20260502204856 | 9 | 184 | 0.0 | 0.0 | 0.00 | 0.00 | 0.00 | 44 | 1013.2 |
| 20260502204353 | 9 | 207 | 3.2 | 3.2 | 0.00 | 0.00 | 0.00 | 43 | 1013.5 |
| 20260502203851 | 8 | 334 | 3.2 | 3.2 | 0.00 | 0.00 | 0.00 | 48 | 1013.5 |
| 20260502203348 | 8 | 323 | 1.6 | 3.2 | 0.00 | 0.00 | 0.00 | 49 | 1013.6 |
| 20260502202843 | 8 | 147 | 1.6 | 3.2 | 0.00 | 0.00 | 0.00 | 50 | 1013.9 |
| 20260502202341 | 7 | 173 | 0.0 | 0.0 | 0.00 | 0.00 | 0.00 | 54 | 1013.8 |
| 20260502201839 | 7 | 58 | 1.6 | 1.6 | 0.00 | 0.00 | 0.00 | 55 | 1013.8 |
| 20260502201335 | 7 | 117 | 1.6 | 1.6 | 0.00 | 0.00 | 0.00 | 58 | 1013.9 |
| 20260502200831 | 7 | 91 | 1.6 | 1.6 | 0.00 | 0.00 | 0.00 | 58 | 1014.0 |
| 20260502200327 | 7 | 2 | 1.6 | 1.6 | 0.00 | 0.00 | 0.00 | 56 | 1013.8 |
| 20260502195825 | 6 | 162 | 1.6 | 1.6 | 0.00 | 0.00 | 0.00 | 63 | 1013.9 |
| 20260502195322 | 6 | 49 | 1.6 | 3.2 | 0.00 | 0.00 | 0.00 | 66 | 1014.0 |
| 20260502194819 | 7 | 309 | 1.6 | 3.2 | 0.00 | 0.00 | 0.00 | 65 | 1014.1 |
| 20260502194315 | 7 | 132 | 0.0 | 0.0 | 0.00 | 0.00 | 0.00 | 63 | 1014.3 |
| 20260502193811 | 7 | 138 | 0.0 | 0.0 | 0.00 | 0.00 | 0.00 | 63 | 1014.4 |
| 20260502193309 | 6 | 342 | 1.6 | 1.6 | 0.00 | 0.00 | 0.00 | 65 | 1014.5 |
| 20260502192804 | 6 | 123 | 0.0 | 1.6 | 0.00 | 0.00 | 0.00 | 66 | 1014.4 |
| 20260502192304 | 7 | 22 | 1.6 | 3.2 | 0.00 | 0.00 | 0.00 | 65 | 1014.6 |
| 20260502191758 | 7 | 180 | 1.6 | 1.6 | 0.00 | 0.00 | 0.00 | 67 | 1014.6 |
| 20260502191256 | 7 | 253 | 1.6 | 1.6 | 0.00 | 0.00 | 0.00 | 62 | 1014.7 |
| 20260502190753 | 8 | 196 | 3.2 | 3.2 | 0.00 | 0.00 | 0.00 | 62 | 1015.0 |
| 20260502190250 | 7 | 209 | 1.6 | 1.6 | 0.00 | 0.00 | 0.00 | 63 | 1015.1 |
| 20260502185750 | 6 | 250 | 3.2 | 4.8 | 0.00 | 0.00 | 0.00 | 67 | 1015.2 |
| 20260502185247 | 6 | 169 | 1.6 | 3.2 | 0.00 | 0.00 | 0.00 | 65 | 1015.5 |
| 20260502184743 | 7 | 151 | 1.6 | 1.6 | 0.00 | 0.00 | 0.00 | 68 | 1015.6 |
| 20260502184239 | 6 | 146 | 0.0 | 0.0 | 0.00 | 0.00 | 0.00 | 69 | 1015.2 |
| 20260502183736 | 6 | 264 | 3.2 | 3.2 | 0.00 | 0.00 | 0.00 | 68 | 1015.5 |
| 20260502183232 | 6 | 235 | 1.6 | 1.6 | 0.00 | 0.00 | 0.00 | 71 | 1015.7 |
| 20260502182727 | 7 | 197 | 1.6 | 1.6 | 0.00 | 0.00 | 0.00 | 66 | 1015.7 |
| 20260502182223 | 7 | 193 | 1.6 | 3.2 | 0.00 | 0.00 | 0.00 | 68 | 1015.6 |
| 20260502181720 | 7 | 190 | 0.0 | 1.6 | 0.00 | 0.00 | 0.00 | 68 | 1015.8 |
| 20260502181214 | 7 | 166 | 0.0 | 0.0 | 0.00 | 0.00 | 0.00 | 68 | 1015.7 |
| 20260502180711 | 6 | 190 | 0.0 | 0.0 | 0.00 | 0.00 | 0.00 | 73 | 1015.8 |
| 20260502180208 | 7 | 156 | 0.0 | 0.0 | 0.00 | 0.00 | 0.00 | 67 | 1015.9 |
| 20260502170131 | 7 | 192 | 1.6 | 1.6 | 0.00 | 0.00 | 0.00 | 66 | 1016.4 |
| 20260502164118 | 7 | 209 | 1.6 | 3.2 | 0.00 | 0.00 | 0.00 | 61 | 1016.6 |
| 20260502163614 | 8 | 233 | 3.2 | 3.2 | 0.00 | 0.00 | 0.00 | 59 | 1016.7 |
| 20260502163111 | 7 | 199 | 3.2 | 3.2 | 0.00 | 0.00 | 0.00 | 68 | 1016.6 |
| 20260502162608 | 8 | 167 | 1.6 | 1.6 | 0.00 | 0.00 | 0.00 | 66 | 1016.5 |
| 20260502162100 | 8 | 175 | 1.6 | 1.6 | 0.00 | 0.00 | 0.00 | 65 | 1016.8 |
| 20260502161556 | 7 | 109 | 1.6 | 1.6 | 0.00 | 0.00 | 0.00 | 64 | 1016.7 |
| 20260502161054 | 7 | 195 | 1.6 | 3.2 | 0.00 | 0.00 | 0.00 | 65 | 1016.8 |
| 20260502160552 | 7 | 144 | 0.0 | 0.0 | 0.00 | 0.00 | 0.00 | 63 | 1017.0 |
| 20260502152004 | 6 | 171 | 3.2 | 4.8 | 0.00 | 0.00 | 0.00 | 64 | 1017.1 |
| 20260502151500 | 6 | 170 | 0.0 | 1.6 | 0.00 | 0.00 | 0.00 | 64 | 1017.1 |
| 20260502150958 | 6 | 201 | 3.2 | 4.8 | 0.00 | 0.00 | 0.00 | 65 | 1017.2 |
| 20260502150455 | 6 | 176 | 1.6 | 1.6 | 0.00 | 0.00 | 0.00 | 66 | 1017.1 |
| 20260502130340 | 2 | 130 | 0.0 | 0.0 | 0.00 | 0.00 | 0.00 | 69 | 1017.7 |
| 20260502123323 | 0 | 156 | 0.0 | 0.0 | 0.00 | 0.00 | 0.00 | 73 | 1017.7 |
| 20260502122820 | 0 | 166 | 0.0 | 0.0 | 0.00 | 0.00 | 0.00 | 76 | 1017.9 |
| 20260502122316 | 0 | 151 | 0.0 | 0.0 | 0.00 | 0.00 | 0.00 | 74 | 1017.7 |
| 20260502121814 | 0 | 174 | 0.0 | 0.0 | 0.00 | 0.00 | 0.00 | 76 | 1018.0 |
| 20260502121311 | 0 | 153 | 0.0 | 0.0 | 0.00 | 0.00 | 0.00 | 78 | 1017.8 |
| 20260502120808 | 0 | 151 | 0.0 | 0.0 | 0.00 | 0.00 | 0.00 | 79 | 1017.8 |
| 20260502120305 | 0 | 155 | 0.0 | 0.0 | 0.00 | 0.00 | 0.00 | 79 | 1017.8 |
| 20260502115803 | -1 | 172 | 0.0 | 0.0 | 0.00 | 0.00 | 0.00 | 80 | 1017.8 |
| 20260502115259 | -1 | 156 | 0.0 | 0.0 | 0.00 | 0.00 | 0.00 | 80 | 1018.0 |
| 20260502114755 | -1 | 161 | 0.0 | 0.0 | 0.00 | 0.00 | 0.00 | 79 | 1017.9 |
| 20260502114252 | -1 | 167 | 0.0 | 0.0 | 0.00 | 0.00 | 0.00 | 80 | 1017.9 |
| 20260502113750 | -1 | 174 | 0.0 | 0.0 | 0.00 | 0.00 | 0.00 | 80 | 1017.8 |
| 20260502113248 | -1 | 180 | 0.0 | 0.0 | 0.00 | 0.00 | 0.00 | 79 | 1017.9 |
| 20260502112746 | -1 | 154 | 0.0 | 0.0 | 0.00 | 0.00 | 0.00 | 80 | 1017.9 |
| 20260502112243 | -1 | 187 | 0.0 | 1.6 | 0.00 | 0.00 | 0.00 | 79 | 1018.1 |
| 20260502111739 | -1 | 154 | 0.0 | 1.6 | 0.00 | 0.00 | 0.00 | 80 | 1017.9 |
| 20260502111237 | -1 | 122 | 1.6 | 1.6 | 0.00 | 0.00 | 0.00 | 79 | 1017.9 |
| 20260502110734 | -1 | 167 | 0.0 | 1.6 | 0.00 | 0.00 | 0.00 | 81 | 1018.0 |
| 20260502110232 | -1 | 160 | 0.0 | 0.0 | 0.00 | 0.00 | 0.00 | 80 | 1017.8 |
| 20260502105730 | -1 | 194 | 0.0 | 0.0 | 0.00 | 0.00 | 0.00 | 79 | 1017.7 |
| 20260502105226 | -1 | 176 | 0.0 | 0.0 | 0.00 | 0.00 | 0.00 | 80 | 1017.9 |
| 20260502104724 | -1 | 184 | 0.0 | 0.0 | 0.00 | 0.00 | 0.00 | 80 | 1017.9 |
| 20260502104221 | -1 | 148 | 0.0 | 0.0 | 0.00 | 0.00 | 0.00 | 80 | 1017.9 |
| 20260502103719 | -2 | 171 | 0.0 | 0.0 | 0.00 | 0.00 | 0.00 | 81 | 1018.0 |
| 20260502103216 | -2 | 169 | 0.0 | 0.0 | 0.00 | 0.00 | 0.00 | 81 | 1017.9 |
| 20260502102713 | -2 | 165 | 0.0 | 0.0 | 0.00 | 0.00 | 0.00 | 81 | 1018.0 |
| 20260502102210 | -1 | 151 | 0.0 | 0.0 | 0.00 | 0.00 | 0.00 | 80 | 1017.9 |
| 20260502101708 | -1 | 175 | 0.0 | 0.0 | 0.00 | 0.00 | 0.00 | 80 | 1017.9 |
| 20260502101206 | -1 | 176 | 0.0 | 0.0 | 0.00 | 0.00 | 0.00 | 82 | 1018.0 |
| 20260502100703 | -1 | 187 | 0.0 | 0.0 | 0.00 | 0.00 | 0.00 | 81 | 1017.9 |
| 20260502100202 | -1 | 150 | 0.0 | 0.0 | 0.00 | 0.00 | 0.00 | 79 | 1018.0 |
| 20260502091136 | -1 | 159 | 0.0 | 0.0 | 0.00 | 0.00 | 0.00 | 80 | 1017.8 |
| 20260502090633 | -1 | 200 | 1.6 | 1.6 | 0.00 | 0.00 | 0.00 | 80 | 1017.9 |
| 20260502090130 | -1 | 168 | 0.0 | 0.0 | 0.00 | 0.00 | 0.00 | 80 | 1017.7 |
| 20260502071527 | -2 | 204 | 0.0 | 1.6 | 0.00 | 0.00 | 0.00 | 84 | 1018.1 |
| 20260502071025 | -1 | 195 | 1.6 | 1.6 | 0.00 | 0.00 | 0.00 | 83 | 1018.4 |
| 20260502070523 | -1 | 166 | 1.6 | 1.6 | 0.00 | 0.00 | 0.00 | 82 | 1018.5 |
| 20260502070021 | -1 | 153 | 0.0 | 0.0 | 0.00 | 0.00 | 0.00 | 81 | 1018.5 |
| 20260502065519 | -1 | 129 | 0.0 | 1.6 | 0.00 | 0.00 | 0.00 | 82 | 1018.4 |
| 20260502065017 | -1 | 145 | 0.0 | 1.6 | 0.00 | 0.00 | 0.00 | 81 | 1018.6 |
| 20260502064515 | -1 | 143 | 0.0 | 1.6 | 0.00 | 0.00 | 0.00 | 81 | 1018.3 |
| 20260502064012 | -1 | 226 | 0.0 | 1.6 | 0.00 | 0.00 | 0.00 | 81 | 1018.6 |
| 20260502063509 | -1 | 161 | 0.0 | 0.0 | 0.00 | 0.00 | 0.00 | 82 | 1018.4 |
| 20260502063007 | -2 | 141 | 0.0 | 0.0 | 0.00 | 0.00 | 0.00 | 84 | 1018.4 |
| 20260502062503 | -2 | 175 | 0.0 | 1.6 | 0.00 | 0.00 | 0.00 | 85 | 1018.6 |
| 20260502062002 | -2 | 151 | 0.0 | 0.0 | 0.00 | 0.00 | 0.00 | 85 | 1018.8 |
| 20260502061500 | -2 | 164 | 0.0 | 0.0 | 0.00 | 0.00 | 0.00 | 83 | 1018.9 |
| 20260502060956 | -2 | 140 | 0.0 | 0.0 | 0.00 | 0.00 | 0.00 | 85 | 1018.9 |
| 20260502060451 | -1 | 147 | 0.0 | 0.0 | 0.00 | 0.00 | 0.00 | 84 | 1018.7 |
| 20260502055948 | -1 | 193 | 0.0 | 1.6 | 0.00 | 0.00 | 0.00 | 82 | 1018.7 |
| 20260502055446 | -2 | 160 | 0.0 | 0.0 | 0.00 | 0.00 | 0.00 | 84 | 1018.7 |
| 20260502054940 | -1 | 154 | 0.0 | 0.0 | 0.00 | 0.00 | 0.00 | 84 | 1018.8 |
| 20260502054438 | -1 | 156 | 0.0 | 0.0 | 0.00 | 0.00 | 0.00 | 85 | 1018.9 |
| 20260502053935 | -1 | 176 | 0.0 | 0.0 | 0.00 | 0.00 | 0.00 | 85 | 1019.1 |
| 20260502053432 | -1 | 155 | 0.0 | 0.0 | 0.00 | 0.00 | 0.00 | 85 | 1018.9 |
| 20260502052929 | -1 | 146 | 0.0 | 0.0 | 0.00 | 0.00 | 0.00 | 84 | 1019.0 |
| 20260502052427 | -1 | 145 | 0.0 | 0.0 | 0.00 | 0.00 | 0.00 | 85 | 1019.0 |
| 20260502051926 | -1 | 136 | 0.0 | 0.0 | 0.00 | 0.00 | 0.00 | 85 | 1019.0 |
| 20260502051423 | -1 | 168 | 0.0 | 0.0 | 0.00 | 0.00 | 0.00 | 84 | 1019.0 |